createdAt,value
2023-01-19T00:02:02.561Z,96847.72
2023-01-19T00:05:06.279Z,96844.22
2023-01-19T00:08:15.568Z,96837.16
2023-01-19T00:11:19.034Z,96830.97
2023-01-19T00:14:21.837Z,96832.66
2023-01-19T00:17:24.841Z,96822.13
2023-01-19T00:20:27.715Z,96814.25
2023-01-19T00:23:30.696Z,96817.81
2023-01-19T00:26:33.519Z,96823.06
2023-01-19T00:29:36.492Z,96831.94
2023-01-19T00:32:39.392Z,96815.34
2023-01-19T00:35:42.977Z,96827.34
2023-01-19T00:38:45.539Z,96820.59
2023-01-19T00:42:07.244Z,96825.78
2023-01-19T00:45:15.161Z,96820.56
2023-01-19T00:48:18.322Z,96814.34
2023-01-19T00:51:21.170Z,96809.03
2023-01-19T00:54:24.436Z,96806.56
2023-01-19T00:57:28.785Z,96810.84
2023-01-19T01:00:32.149Z,96801.88
2023-01-19T01:03:34.913Z,96798.47
2023-01-19T01:06:38.164Z,96786.13
2023-01-19T01:09:41.047Z,96781.88
2023-01-19T01:12:57.038Z,96790.75
2023-01-19T01:16:01.241Z,96782.03
2023-01-19T01:19:04.615Z,96774.97
2023-01-19T01:22:08.621Z,96752.22
2023-01-19T01:25:19.262Z,96754.56
2023-01-19T01:28:22.110Z,96739.00
2023-01-19T01:31:25.323Z,96726.63
2023-01-19T01:34:28.336Z,96729.34
2023-01-19T01:37:31.423Z,96744.31
2023-01-19T01:40:34.104Z,96736.44
2023-01-19T01:43:58.528Z,96722.44
2023-01-19T01:47:01.516Z,96743.72
2023-01-19T01:50:16.956Z,96747.19
2023-01-19T01:53:19.681Z,96755.06
2023-01-19T01:56:26.635Z,96755.25
2023-01-19T01:59:39.344Z,96764.13
2023-01-19T02:02:52.082Z,96765.97
2023-01-19T02:05:59.328Z,96760.81
2023-01-19T02:09:27.106Z,96763.38
2023-01-19T02:12:48.532Z,96774.97
2023-01-19T02:15:54.386Z,96786.50
2023-01-19T02:18:57.950Z,96789.16
2023-01-19T02:22:20.868Z,96779.53
2023-01-19T02:25:25.402Z,96765.47
2023-01-19T02:28:28.878Z,96739.13
2023-01-19T02:31:33.443Z,96739.25
2023-01-19T02:34:36.334Z,96761.56
2023-01-19T02:37:40.634Z,96746.41
2023-01-19T02:40:44.723Z,96806.63
2023-01-19T02:43:49.188Z,96812.84
2023-01-19T02:46:54.582Z,96805.84
2023-01-19T02:49:58.565Z,96784.69
2023-01-19T02:53:26.231Z,96753.84
2023-01-19T02:56:47.899Z,96716.09
2023-01-19T03:00:12.609Z,96738.13
2023-01-19T03:03:31.374Z,96753.13
2023-01-19T03:06:45.143Z,96756.06
2023-01-19T03:10:17.776Z,96781.72
2023-01-19T03:13:32.695Z,96803.75
2023-01-19T03:16:44.439Z,96795.88
2023-01-19T03:19:49.677Z,96797.69
2023-01-19T03:23:02.123Z,96795.88
2023-01-19T03:26:06.563Z,96799.66
2023-01-19T03:29:12.809Z,96827.00
2023-01-19T03:32:16.704Z,96817.50
2023-01-19T03:35:22.330Z,96829.63
2023-01-19T03:38:26.468Z,96825.28
2023-01-19T03:41:30.615Z,96821.69
2023-01-19T03:44:35.348Z,96789.22
2023-01-19T03:47:38.589Z,96755.56
2023-01-19T03:50:41.285Z,96727.38
2023-01-19T03:53:44.347Z,96736.56
2023-01-19T03:56:46.972Z,96749.91
2023-01-19T03:59:50.063Z,96746.41
2023-01-19T04:02:52.913Z,96726.34
2023-01-19T04:05:56.946Z,96751.84
2023-01-19T04:08:59.673Z,96768.78
2023-01-19T04:12:03.926Z,96780.47
2023-01-19T04:15:07.309Z,96769.00
2023-01-19T04:18:10.523Z,96764.59
2023-01-19T04:21:13.277Z,96749.72
2023-01-19T04:24:16.864Z,96578.72
2023-01-19T04:27:19.888Z,96721.38
2023-01-19T04:30:23.041Z,96751.53
2023-01-19T04:33:27.788Z,96754.25
2023-01-19T04:36:31.389Z,96765.06
2023-01-19T04:39:34.537Z,96774.84
2023-01-19T04:42:37.445Z,96777.59
2023-01-19T04:45:40.139Z,96774.91
2023-01-19T04:48:43.318Z,96760.16
2023-01-19T04:51:46.824Z,96773.16
2023-01-19T04:54:49.955Z,96753.81
2023-01-19T04:57:52.646Z,96760.81
2023-01-19T05:00:57.351Z,96764.50
2023-01-19T05:04:01.010Z,96749.84
2023-01-19T05:07:04.224Z,96744.34
2023-01-19T05:10:07.960Z,96765.06
2023-01-19T05:13:11.343Z,96777.03
2023-01-19T05:16:14.220Z,96761.41
2023-01-19T05:19:17.768Z,96781.00
2023-01-19T05:22:20.485Z,96790.72
2023-01-19T05:25:23.614Z,96775.00
2023-01-19T05:28:30.490Z,96788.31
2023-01-19T05:31:34.426Z,96808.56
2023-01-19T05:34:37.475Z,96821.03
2023-01-19T05:37:41.140Z,96812.25
2023-01-19T05:40:44.056Z,96814.87
2023-01-19T05:43:47.407Z,96830.78
2023-01-19T05:46:50.506Z,96831.75
2023-01-19T05:49:53.939Z,96845.94
2023-01-19T05:52:57.042Z,96817.81
2023-01-19T05:56:05.759Z,96792.34
2023-01-19T05:59:09.077Z,96800.44
2023-01-19T06:02:12.804Z,96806.63
2023-01-19T06:05:16.789Z,96779.44
2023-01-19T06:08:19.515Z,96770.88
2023-01-19T06:11:23.013Z,96781.72
2023-01-19T06:14:26.736Z,96776.34
2023-01-19T06:17:32.420Z,96794.19
2023-01-19T06:20:37.195Z,96792.44
2023-01-19T06:23:40.820Z,96795.88
2023-01-19T06:26:43.894Z,96794.13
2023-01-19T06:29:47.126Z,96814.31
2023-01-19T06:32:49.798Z,96809.09
2023-01-19T06:35:52.769Z,96793.16
2023-01-19T06:38:55.777Z,96808.03
2023-01-19T06:41:59.213Z,96793.91
2023-01-19T06:45:01.973Z,96777.53
2023-01-19T06:48:06.463Z,96800.97
2023-01-19T06:51:09.421Z,96798.22
2023-01-19T06:54:12.587Z,96695.94
2023-01-19T06:57:15.545Z,96808.00
2023-01-19T07:00:19.167Z,96709.16
2023-01-19T07:03:23.470Z,96814.87
2023-01-19T07:06:26.849Z,96815.75
2023-01-19T07:09:29.760Z,96802.50
2023-01-19T07:12:33.420Z,96808.56
2023-01-19T07:15:37.847Z,96819.31
2023-01-19T07:18:41.218Z,96683.22
2023-01-19T07:21:44.744Z,96683.38
2023-01-19T07:24:48.065Z,96701.66
2023-01-19T07:27:50.935Z,96723.09
2023-01-19T07:30:55.443Z,96804.94
2023-01-19T07:33:58.152Z,96780.00
2023-01-19T07:37:01.558Z,96806.34
2023-01-19T07:40:04.684Z,96814.44
2023-01-19T07:43:08.469Z,96825.59
2023-01-19T07:46:11.579Z,96823.25
2023-01-19T07:49:14.593Z,96830.56
2023-01-19T07:52:17.451Z,96819.94
2023-01-19T07:55:20.833Z,96817.56
2023-01-19T07:58:26.857Z,96815.97
2023-01-19T08:01:30.268Z,96833.31
2023-01-19T08:04:33.432Z,96838.59
2023-01-19T08:07:36.237Z,96834.09
2023-01-19T08:10:39.590Z,96834.00
2023-01-19T08:13:43.641Z,96839.22
2023-01-19T08:16:46.601Z,96828.53
2023-01-19T08:19:49.599Z,96823.25
2023-01-19T08:23:00.126Z,96824.03
2023-01-19T08:26:18.271Z,96819.50
2023-01-19T08:29:21.288Z,96832.72
2023-01-19T08:32:24.025Z,96837.94
2023-01-19T08:35:27.175Z,96835.25
2023-01-19T08:38:30.540Z,96841.44
2023-01-19T08:41:33.607Z,96829.75
2023-01-19T08:44:37.877Z,96827.00
2023-01-19T08:47:44.175Z,96841.88
2023-01-19T08:50:47.823Z,96848.16
2023-01-19T08:53:50.992Z,96848.16
2023-01-19T08:56:53.581Z,96850.97
2023-01-19T08:59:56.528Z,96854.22
2023-01-19T09:03:00.551Z,96855.28
2023-01-19T09:06:07.865Z,96848.38
2023-01-19T09:09:10.883Z,96826.59
2023-01-19T09:12:14.802Z,96853.25
2023-01-19T09:15:18.151Z,96845.47
2023-01-19T09:18:22.532Z,96844.47
2023-01-19T09:21:26.120Z,96848.81
2023-01-19T09:24:29.263Z,96853.06
2023-01-19T09:27:31.975Z,96852.25
2023-01-19T09:30:37.300Z,96839.81
2023-01-19T09:33:40.175Z,96830.91
2023-01-19T09:36:43.290Z,96838.75
2023-01-19T09:39:46.119Z,96843.09
2023-01-19T09:42:57.013Z,96835.94
2023-01-19T09:46:02.746Z,96831.41
2023-01-19T09:49:15.009Z,96842.00
2023-01-19T09:52:18.555Z,96845.47
2023-01-19T09:55:25.685Z,96843.63
2023-01-19T09:58:29.064Z,96835.75
2023-01-19T10:01:34.636Z,96794.13
2023-01-19T10:05:03.417Z,96841.16
2023-01-19T10:08:52.812Z,96842.00
2023-01-19T10:12:05.535Z,96840.56
2023-01-19T10:15:26.442Z,96839.34
2023-01-19T10:18:45.893Z,96840.06
2023-01-19T10:21:51.415Z,96848.19
2023-01-19T10:25:00.620Z,96847.16
2023-01-19T10:28:04.696Z,96855.13
2023-01-19T10:31:09.703Z,96852.34
2023-01-19T10:34:20.932Z,96835.47
2023-01-19T10:37:34.606Z,96839.97
2023-01-19T10:40:48.648Z,96804.38
2023-01-19T10:44:00.167Z,96838.22
2023-01-19T10:47:05.526Z,96851.44
2023-01-19T10:50:31.267Z,96859.41
2023-01-19T10:53:34.149Z,96861.16
2023-01-19T10:56:38.569Z,96862.91
2023-01-19T10:59:44.357Z,96861.25
2023-01-19T11:02:51.461Z,96859.75
2023-01-19T11:05:54.297Z,96856.22
2023-01-19T11:09:11.583Z,96851.81
2023-01-19T11:12:22.947Z,96846.47
2023-01-19T11:15:36.627Z,96844.66
2023-01-19T11:18:40.559Z,96859.91
2023-01-19T11:21:43.744Z,96853.69
2023-01-19T11:24:46.451Z,96860.78
2023-01-19T11:27:51.915Z,96855.44
2023-01-19T11:31:02.271Z,96866.38
2023-01-19T11:34:14.607Z,96839.97
2023-01-19T11:37:20.020Z,96870.69
2023-01-19T11:40:23.364Z,96879.84
2023-01-19T11:43:43.355Z,96886.50
2023-01-19T11:47:06.190Z,96882.16
2023-01-19T11:50:23.778Z,96880.66
2023-01-19T11:53:29.362Z,96877.28
2023-01-19T11:56:32.120Z,96873.84
2023-01-19T11:59:35.212Z,96889.03
2023-01-19T12:02:44.678Z,96891.87
2023-01-19T12:05:51.333Z,96893.69
2023-01-19T12:09:05.513Z,96906.09
2023-01-19T12:12:43.921Z,96898.97
2023-01-19T12:15:48.295Z,96896.56
2023-01-19T12:18:56.836Z,96888.56
2023-01-19T12:21:59.687Z,96899.94
2023-01-19T12:25:08.496Z,96898.31
2023-01-19T12:28:13.714Z,96918.56
2023-01-19T12:31:19.325Z,96916.72
2023-01-19T12:34:31.333Z,96929.91
2023-01-19T12:37:41.206Z,96934.47
2023-01-19T12:40:43.916Z,96926.53
2023-01-19T12:43:48.048Z,96935.41
2023-01-19T12:47:03.352Z,96928.44
2023-01-19T12:50:14.297Z,96945.16
2023-01-19T12:53:19.733Z,96955.59
2023-01-19T12:56:30.985Z,96954.78
2023-01-19T12:59:36.881Z,96960.97
2023-01-19T13:02:47.510Z,96955.56
2023-01-19T13:05:55.242Z,96965.41
2023-01-19T13:09:00.918Z,96969.84
2023-01-19T13:12:24.223Z,96980.28
2023-01-19T13:15:33.517Z,96986.34
2023-01-19T13:18:40.873Z,96992.66
2023-01-19T13:21:48.601Z,96996.91
2023-01-19T13:25:14.058Z,97005.59
2023-01-19T13:28:19.032Z,97012.59
2023-01-19T13:31:22.166Z,97025.84
2023-01-19T13:34:26.576Z,97031.94
2023-01-19T13:37:41.816Z,97041.53
2023-01-19T13:40:45.754Z,97030.03
2023-01-19T13:43:53.125Z,97037.16
2023-01-19T13:46:57.531Z,97040.88
2023-01-19T13:50:01.565Z,97051.34
2023-01-19T13:53:20.871Z,97048.63
2023-01-19T13:56:25.216Z,97040.91
2023-01-19T13:59:28.605Z,97061.81
2023-01-19T14:02:31.420Z,97060.19
2023-01-19T14:05:42.632Z,97072.72
2023-01-19T14:08:45.525Z,97051.94
2023-01-19T14:12:12.371Z,97086.59
2023-01-19T14:15:15.206Z,97085.69
2023-01-19T14:18:18.200Z,97090.91
2023-01-19T14:21:20.970Z,97097.28
2023-01-19T14:24:24.642Z,97095.47
2023-01-19T14:27:27.358Z,97108.59
2023-01-19T14:30:32.646Z,97109.66
2023-01-19T14:33:37.262Z,97087.53
2023-01-19T14:36:42.035Z,97089.31
2023-01-19T14:39:47.180Z,97083.09
2023-01-19T14:42:55.875Z,97075.13
2023-01-19T14:45:58.746Z,97076.78
2023-01-19T14:49:03.847Z,97089.13
2023-01-19T14:52:36.189Z,97102.38
2023-01-19T14:55:51.246Z,97118.59
2023-01-19T14:58:54.941Z,97122.03
2023-01-19T15:02:00.002Z,97126.44
2023-01-19T15:05:02.904Z,97109.84
2023-01-19T15:08:06.871Z,97121.84
2023-01-19T15:11:22.125Z,97141.28
2023-01-19T15:14:25.200Z,97153.69
2023-01-19T15:17:31.047Z,97157.25
2023-01-19T15:20:34.258Z,97149.34
2023-01-19T15:23:37.116Z,97162.53
2023-01-19T15:26:42.764Z,97166.19
2023-01-19T15:29:46.164Z,97089.72
2023-01-19T15:32:49.458Z,97170.47
2023-01-19T15:35:53.430Z,97154.81
2023-01-19T15:38:57.259Z,97149.06
2023-01-19T15:42:00.303Z,97152.75
2023-01-19T15:45:03.871Z,97162.91
2023-01-19T15:48:08.958Z,97176.19
2023-01-19T15:51:16.775Z,97191.75
2023-01-19T15:54:19.811Z,97186.88
2023-01-19T15:57:23.295Z,97177.53
2023-01-19T16:00:26.358Z,97174.47
2023-01-19T16:03:29.402Z,97188.69
2023-01-19T16:06:33.046Z,97195.91
2023-01-19T16:09:40.739Z,97215.44
2023-01-19T16:12:44.850Z,97234.19
2023-01-19T16:15:48.823Z,97249.53
2023-01-19T16:18:51.753Z,97256.66
2023-01-19T16:21:54.843Z,97268.16
2023-01-19T16:24:57.799Z,97283.53
2023-01-19T16:28:00.746Z,97281.34
2023-01-19T16:31:03.940Z,97252.56
2023-01-19T16:34:07.780Z,97274.44
2023-01-19T16:37:12.114Z,97275.53
2023-01-19T16:40:15.359Z,97273.75
2023-01-19T16:43:20.892Z,97283.38
2023-01-19T16:46:26.976Z,97277.28
2023-01-19T16:49:30.478Z,97280.94
2023-01-19T16:52:33.989Z,97289.91
2023-01-19T16:55:41.195Z,97299.75
2023-01-19T16:58:44.477Z,97299.75
2023-01-19T17:01:47.918Z,97309.63
2023-01-19T17:04:51.669Z,97313.34
2023-01-19T17:07:55.127Z,97326.56
2023-01-19T17:10:58.717Z,97342.63
2023-01-19T17:14:07.235Z,97334.81
2023-01-19T17:17:10.183Z,97338.22
2023-01-19T17:20:13.567Z,97325.13
2023-01-19T17:23:18.113Z,97346.34
2023-01-19T17:26:22.233Z,97355.09
2023-01-19T17:29:25.770Z,97361.31
2023-01-19T17:32:30.086Z,97369.28
2023-01-19T17:35:34.873Z,97355.13
2023-01-19T17:38:38.134Z,97383.19
2023-01-19T17:41:42.011Z,97384.19
2023-01-19T17:44:45.854Z,97388.63
2023-01-19T17:47:50.388Z,97401.87
2023-01-19T17:51:02.588Z,97393.97
2023-01-19T17:54:06.089Z,97368.00
2023-01-19T17:57:08.697Z,97404.56
2023-01-19T18:00:12.894Z,97401.37
2023-01-19T18:03:16.983Z,97409.97
2023-01-19T18:06:20.369Z,97411.66
2023-01-19T18:09:23.330Z,97406.41
2023-01-19T18:12:26.362Z,97403.84
2023-01-19T18:15:29.770Z,97407.38
2023-01-19T18:18:32.757Z,97405.59
2023-01-19T18:21:37.616Z,97394.28
2023-01-19T18:24:41.408Z,97403.84
2023-01-19T18:27:44.969Z,97409.16
2023-01-19T18:30:48.172Z,97403.97
2023-01-19T18:33:52.154Z,97400.50
2023-01-19T18:36:55.061Z,97408.50
2023-01-19T18:40:02.200Z,97409.37
2023-01-19T18:43:06.300Z,97418.28
2023-01-19T18:46:11.291Z,97426.16
2023-01-19T18:49:14.575Z,97426.31
2023-01-19T18:52:17.853Z,97421.16
2023-01-19T18:55:21.042Z,97433.53
2023-01-19T18:58:25.049Z,97408.22
2023-01-19T19:01:32.799Z,97419.59
2023-01-19T19:04:36.701Z,97436.34
2023-01-19T19:07:40.175Z,97428.41
2023-01-19T19:10:43.623Z,97428.41
2023-01-19T19:13:51.130Z,97430.19
2023-01-19T19:16:54.282Z,97435.53
2023-01-19T19:19:57.824Z,97438.94
2023-01-19T19:23:01.073Z,97446.97
2023-01-19T19:26:08.886Z,97451.91
2023-01-19T19:29:12.307Z,97463.56
2023-01-19T19:32:16.757Z,97464.66
2023-01-19T19:35:21.232Z,97463.94
2023-01-19T19:38:24.449Z,97433.41
2023-01-19T19:41:32.401Z,97465.81
2023-01-19T19:44:35.523Z,97470.47
2023-01-19T19:47:38.949Z,97474.16
2023-01-19T19:50:42.160Z,97496.06
2023-01-19T19:53:51.503Z,97503.06
2023-01-19T19:56:55.287Z,97512.75
2023-01-19T19:59:58.700Z,97518.03
2023-01-19T20:03:03.036Z,97516.31
2023-01-19T20:06:08.451Z,97515.44
2023-01-19T20:09:15.737Z,97529.53
2023-01-19T20:12:19.493Z,97528.66
2023-01-19T20:15:22.784Z,97526.88
2023-01-19T20:18:26.312Z,97472.75
2023-01-19T20:21:32.103Z,97524.25
2023-01-19T20:24:35.543Z,97523.41
2023-01-19T20:27:38.787Z,97530.56
2023-01-19T20:30:42.197Z,97530.41
2023-01-19T20:33:46.614Z,97548.03
2023-01-19T20:36:53.178Z,97553.34
2023-01-19T20:39:56.018Z,97564.88
2023-01-19T20:42:59.533Z,97563.16
2023-01-19T20:46:04.054Z,97569.28
2023-01-19T20:49:07.602Z,97570.16
2023-01-19T20:52:10.736Z,97574.59
2023-01-19T20:55:14.375Z,97571.03
2023-01-19T20:58:17.098Z,97559.63
2023-01-19T21:01:24.030Z,97566.69
2023-01-19T21:04:27.138Z,97555.31
2023-01-19T21:07:30.240Z,97526.56
2023-01-19T21:10:33.325Z,97569.47
2023-01-19T21:13:37.321Z,97581.88
2023-01-19T21:16:40.340Z,97573.09
2023-01-19T21:19:44.439Z,97562.63
2023-01-19T21:22:47.443Z,97549.44
2023-01-19T21:25:51.822Z,97559.91
2023-01-19T21:28:54.835Z,97577.53
2023-01-19T21:31:58.682Z,97582.94
2023-01-19T21:35:01.543Z,97589.09
2023-01-19T21:38:04.660Z,97598.75
2023-01-19T21:41:09.887Z,97588.28
2023-01-19T21:44:13.458Z,97605.94
2023-01-19T21:47:16.355Z,97574.63
2023-01-19T21:50:19.788Z,97652.63
2023-01-19T21:53:22.731Z,97661.47
2023-01-19T21:56:29.543Z,97656.09
2023-01-19T21:59:32.443Z,97643.78
2023-01-19T22:02:38.827Z,97633.22
2023-01-19T22:05:42.357Z,97627.06
2023-01-19T22:08:46.767Z,97636.81
2023-01-19T22:11:49.900Z,97647.28
2023-01-19T22:14:53.200Z,97650.78
2023-01-19T22:17:56.497Z,97647.22
2023-01-19T22:21:08.317Z,97639.31
2023-01-19T22:24:12.888Z,97615.59
2023-01-19T22:27:15.826Z,97606.78
2023-01-19T22:30:19.301Z,97612.94
2023-01-19T22:33:22.238Z,97612.94
2023-01-19T22:36:29.954Z,97624.38
2023-01-19T22:39:34.654Z,97597.44
2023-01-19T22:42:37.687Z,97637.66
2023-01-19T22:45:41.785Z,97617.50
2023-01-19T22:48:45.301Z,97627.25
2023-01-19T22:51:49.974Z,97643.84
2023-01-19T22:54:56.328Z,97640.31
2023-01-19T22:57:58.968Z,97623.59
2023-01-19T23:01:09.727Z,97607.78
2023-01-19T23:04:15.146Z,97618.31
2023-01-19T23:07:18.290Z,97620.03
2023-01-19T23:10:21.394Z,97612.16
2023-01-19T23:13:25.110Z,97602.50
2023-01-19T23:16:27.965Z,97606.06
2023-01-19T23:19:31.461Z,97598.97
2023-01-19T23:22:34.248Z,97599.00
2023-01-19T23:25:37.513Z,97597.28
2023-01-19T23:28:41.360Z,97602.47
2023-01-19T23:31:47.116Z,97594.47
2023-01-19T23:34:49.922Z,97596.22
2023-01-19T23:37:53.187Z,97608.63
2023-01-19T23:40:58.822Z,97599.87
2023-01-19T23:44:02.821Z,97600.75
2023-01-19T23:47:05.675Z,97598.97
2023-01-19T23:50:09.794Z,97591.94
2023-01-19T23:53:12.702Z,97607.78
2023-01-19T23:56:21.591Z,97614.84
2023-01-19T23:59:24.321Z,97598.09
